sensor_id;sensor_type;location;lat;lon;timestamp;P1;durP1;ratioP1;P2;durP2;ratioP2
11986;SDS011;6053;51.382;6.768;2022-09-03T00:00:34;0.45;;;0.45;;
11986;SDS011;6053;51.382;6.768;2022-09-03T00:03:11;0.40;;;0.40;;
11986;SDS011;6053;51.382;6.768;2022-09-03T00:05:47;0.40;;;0.40;;
11986;SDS011;6053;51.382;6.768;2022-09-03T00:08:24;0.50;;;0.50;;
11986;SDS011;6053;51.382;6.768;2022-09-03T00:11:00;0.20;;;0.20;;
11986;SDS011;6053;51.382;6.768;2022-09-03T00:13:37;1.00;;;0.40;;
11986;SDS011;6053;51.382;6.768;2022-09-03T00:16:12;0.30;;;0.30;;
11986;SDS011;6053;51.382;6.768;2022-09-03T00:18:45;0.22;;;0.22;;
11986;SDS011;6053;51.382;6.768;2022-09-03T00:21:28;0.40;;;0.40;;
11986;SDS011;6053;51.382;6.768;2022-09-03T00:24:05;0.30;;;0.30;;
11986;SDS011;6053;51.382;6.768;2022-09-03T00:26:41;1.60;;;0.50;;
11986;SDS011;6053;51.382;6.768;2022-09-03T00:29:14;0.70;;;0.40;;
11986;SDS011;6053;51.382;6.768;2022-09-03T00:31:47;0.40;;;0.40;;
11986;SDS011;6053;51.382;6.768;2022-09-03T00:34:19;0.20;;;0.20;;
11986;SDS011;6053;51.382;6.768;2022-09-03T00:36:52;0.52;;;0.32;;
11986;SDS011;6053;51.382;6.768;2022-09-03T00:39:22;0.30;;;0.30;;
11986;SDS011;6053;51.382;6.768;2022-09-03T00:41:56;0.40;;;0.40;;
11986;SDS011;6053;51.382;6.768;2022-09-03T00:44:46;0.50;;;0.50;;
11986;SDS011;6053;51.382;6.768;2022-09-03T00:47:32;0.30;;;0.30;;
11986;SDS011;6053;51.382;6.768;2022-09-03T00:50:08;0.30;;;0.30;;
11986;SDS011;6053;51.382;6.768;2022-09-03T00:52:48;0.38;;;0.38;;
11986;SDS011;6053;51.382;6.768;2022-09-03T00:55:28;0.30;;;0.30;;
11986;SDS011;6053;51.382;6.768;2022-09-03T00:58:09;0.30;;;0.30;;
11986;SDS011;6053;51.382;6.768;2022-09-03T01:01:09;0.32;;;0.32;;
11986;SDS011;6053;51.382;6.768;2022-09-03T01:03:49;0.30;;;0.30;;
11986;SDS011;6053;51.382;6.768;2022-09-03T01:06:26;0.30;;;0.30;;
11986;SDS011;6053;51.382;6.768;2022-09-03T01:09:02;0.32;;;0.32;;
11986;SDS011;6053;51.382;6.768;2022-09-03T01:11:40;0.43;;;0.43;;
11986;SDS011;6053;51.382;6.768;2022-09-03T01:14:25;0.30;;;0.30;;
11986;SDS011;6053;51.382;6.768;2022-09-03T01:17:03;0.30;;;0.30;;
11986;SDS011;6053;51.382;6.768;2022-09-03T01:19:46;0.40;;;0.40;;
11986;SDS011;6053;51.382;6.768;2022-09-03T01:22:41;0.30;;;0.30;;
11986;SDS011;6053;51.382;6.768;2022-09-03T01:25:26;0.30;;;0.30;;
11986;SDS011;6053;51.382;6.768;2022-09-03T01:28:20;0.23;;;0.23;;
11986;SDS011;6053;51.382;6.768;2022-09-03T01:31:02;0.30;;;0.30;;
11986;SDS011;6053;51.382;6.768;2022-09-03T01:33:43;0.30;;;0.30;;
11986;SDS011;6053;51.382;6.768;2022-09-03T01:36:18;0.30;;;0.30;;
11986;SDS011;6053;51.382;6.768;2022-09-03T01:38:54;0.30;;;0.30;;
11986;SDS011;6053;51.382;6.768;2022-09-03T01:41:30;0.30;;;0.30;;
11986;SDS011;6053;51.382;6.768;2022-09-03T01:44:30;0.40;;;0.40;;
11986;SDS011;6053;51.382;6.768;2022-09-03T01:47:12;0.40;;;0.40;;
11986;SDS011;6053;51.382;6.768;2022-09-03T01:49:48;0.30;;;0.30;;
11986;SDS011;6053;51.382;6.768;2022-09-03T01:52:24;0.40;;;0.40;;
11986;SDS011;6053;51.382;6.768;2022-09-03T01:55:08;0.40;;;0.40;;
11986;SDS011;6053;51.382;6.768;2022-09-03T02:00:19;0.40;;;0.40;;
11986;SDS011;6053;51.382;6.768;2022-09-03T02:02:48;0.30;;;0.30;;
11986;SDS011;6053;51.382;6.768;2022-09-03T02:05:19;0.40;;;0.40;;
11986;SDS011;6053;51.382;6.768;2022-09-03T02:07:50;1.05;;;0.35;;
11986;SDS011;6053;51.382;6.768;2022-09-03T02:10:25;0.50;;;0.30;;
11986;SDS011;6053;51.382;6.768;2022-09-03T02:12:58;0.40;;;0.40;;
11986;SDS011;6053;51.382;6.768;2022-09-03T02:15:32;0.40;;;0.40;;
11986;SDS011;6053;51.382;6.768;2022-09-03T02:18:05;0.30;;;0.30;;
11986;SDS011;6053;51.382;6.768;2022-09-03T02:20:38;0.32;;;0.32;;
11986;SDS011;6053;51.382;6.768;2022-09-03T02:23:07;0.38;;;0.38;;
11986;SDS011;6053;51.382;6.768;2022-09-03T02:25:37;0.45;;;0.45;;
11986;SDS011;6053;51.382;6.768;2022-09-03T02:28:08;0.30;;;0.30;;
11986;SDS011;6053;51.382;6.768;2022-09-03T02:30:44;0.45;;;0.45;;
11986;SDS011;6053;51.382;6.768;2022-09-03T02:33:13;0.40;;;0.40;;
11986;SDS011;6053;51.382;6.768;2022-09-03T02:35:42;0.40;;;0.40;;
11986;SDS011;6053;51.382;6.768;2022-09-03T02:38:13;0.38;;;0.38;;
11986;SDS011;6053;51.382;6.768;2022-09-03T02:40:43;0.40;;;0.40;;
11986;SDS011;6053;51.382;6.768;2022-09-03T02:43:13;0.50;;;0.50;;
11986;SDS011;6053;51.382;6.768;2022-09-03T02:45:51;0.47;;;0.47;;
11986;SDS011;6053;51.382;6.768;2022-09-03T02:48:23;0.47;;;0.47;;
11986;SDS011;6053;51.382;6.768;2022-09-03T02:50:52;0.88;;;0.50;;
11986;SDS011;6053;51.382;6.768;2022-09-03T02:53:21;0.45;;;0.45;;
11986;SDS011;6053;51.382;6.768;2022-09-03T02:55:49;0.43;;;0.43;;
11986;SDS011;6053;51.382;6.768;2022-09-03T02:58:18;0.60;;;0.60;;
11986;SDS011;6053;51.382;6.768;2022-09-03T03:00:47;0.40;;;0.40;;
11986;SDS011;6053;51.382;6.768;2022-09-03T03:03:17;0.60;;;0.50;;
11986;SDS011;6053;51.382;6.768;2022-09-03T03:05:46;0.50;;;0.50;;
11986;SDS011;6053;51.382;6.768;2022-09-03T03:08:17;0.50;;;0.50;;
11986;SDS011;6053;51.382;6.768;2022-09-03T03:10:50;0.40;;;0.40;;
11986;SDS011;6053;51.382;6.768;2022-09-03T03:13:22;0.50;;;0.50;;
11986;SDS011;6053;51.382;6.768;2022-09-03T03:15:50;0.65;;;0.65;;
11986;SDS011;6053;51.382;6.768;2022-09-03T03:18:23;0.60;;;0.60;;
11986;SDS011;6053;51.382;6.768;2022-09-03T03:20:52;0.50;;;0.50;;
11986;SDS011;6053;51.382;6.768;2022-09-03T03:23:21;0.57;;;0.57;;
11986;SDS011;6053;51.382;6.768;2022-09-03T03:25:50;0.50;;;0.50;;
11986;SDS011;6053;51.382;6.768;2022-09-03T03:28:19;0.73;;;0.73;;
11986;SDS011;6053;51.382;6.768;2022-09-03T03:30:47;0.50;;;0.50;;
11986;SDS011;6053;51.382;6.768;2022-09-03T03:33:18;1.30;;;0.50;;
11986;SDS011;6053;51.382;6.768;2022-09-03T03:35:50;0.57;;;0.57;;
11986;SDS011;6053;51.382;6.768;2022-09-03T03:38:18;0.52;;;0.52;;
11986;SDS011;6053;51.382;6.768;2022-09-03T03:40:47;0.60;;;0.60;;
11986;SDS011;6053;51.382;6.768;2022-09-03T03:43:16;0.50;;;0.50;;
11986;SDS011;6053;51.382;6.768;2022-09-03T03:45:54;0.73;;;0.73;;
11986;SDS011;6053;51.382;6.768;2022-09-03T03:48:24;0.70;;;0.70;;
11986;SDS011;6053;51.382;6.768;2022-09-03T03:50:54;0.50;;;0.50;;
11986;SDS011;6053;51.382;6.768;2022-09-03T03:53:26;0.45;;;0.45;;
11986;SDS011;6053;51.382;6.768;2022-09-03T03:55:55;0.60;;;0.60;;
11986;SDS011;6053;51.382;6.768;2022-09-03T03:58:24;0.52;;;0.52;;
11986;SDS011;6053;51.382;6.768;2022-09-03T04:00:54;0.53;;;0.53;;
11986;SDS011;6053;51.382;6.768;2022-09-03T04:03:30;0.68;;;0.68;;
11986;SDS011;6053;51.382;6.768;2022-09-03T04:06:00;0.50;;;0.50;;
11986;SDS011;6053;51.382;6.768;2022-09-03T04:08:30;0.60;;;0.60;;
11986;SDS011;6053;51.382;6.768;2022-09-03T04:11:02;0.60;;;0.60;;
11986;SDS011;6053;51.382;6.768;2022-09-03T04:13:33;0.50;;;0.50;;
11986;SDS011;6053;51.382;6.768;2022-09-03T04:16:03;0.50;;;0.50;;
11986;SDS011;6053;51.382;6.768;2022-09-03T04:18:33;0.60;;;0.60;;
11986;SDS011;6053;51.382;6.768;2022-09-03T04:21:04;0.60;;;0.60;;
11986;SDS011;6053;51.382;6.768;2022-09-03T04:23:36;0.65;;;0.65;;
11986;SDS011;6053;51.382;6.768;2022-09-03T04:26:06;0.60;;;0.60;;
11986;SDS011;6053;51.382;6.768;2022-09-03T04:28:37;0.57;;;0.57;;
11986;SDS011;6053;51.382;6.768;2022-09-03T04:31:08;0.63;;;0.63;;
11986;SDS011;6053;51.382;6.768;2022-09-03T04:33:39;0.65;;;0.65;;
11986;SDS011;6053;51.382;6.768;2022-09-03T04:36:10;0.60;;;0.60;;
11986;SDS011;6053;51.382;6.768;2022-09-03T04:38:40;0.68;;;0.68;;
11986;SDS011;6053;51.382;6.768;2022-09-03T04:41:11;0.60;;;0.60;;
11986;SDS011;6053;51.382;6.768;2022-09-03T04:43:41;0.80;;;0.80;;
11986;SDS011;6053;51.382;6.768;2022-09-03T04:46:14;0.65;;;0.65;;
11986;SDS011;6053;51.382;6.768;2022-09-03T04:48:46;0.70;;;0.70;;
11986;SDS011;6053;51.382;6.768;2022-09-03T04:51:19;0.70;;;0.70;;
11986;SDS011;6053;51.382;6.768;2022-09-03T04:53:53;0.73;;;0.73;;
11986;SDS011;6053;51.382;6.768;2022-09-03T04:56:24;0.60;;;0.60;;
11986;SDS011;6053;51.382;6.768;2022-09-03T04:58:53;0.60;;;0.60;;
11986;SDS011;6053;51.382;6.768;2022-09-03T05:01:24;0.90;;;0.90;;
11986;SDS011;6053;51.382;6.768;2022-09-03T05:03:54;1.00;;;1.00;;
11986;SDS011;6053;51.382;6.768;2022-09-03T05:06:25;0.80;;;0.80;;
11986;SDS011;6053;51.382;6.768;2022-09-03T05:08:54;0.80;;;0.80;;
11986;SDS011;6053;51.382;6.768;2022-09-03T05:11:24;1.00;;;1.00;;
11986;SDS011;6053;51.382;6.768;2022-09-03T05:13:55;0.90;;;0.90;;
11986;SDS011;6053;51.382;6.768;2022-09-03T05:16:25;0.60;;;0.60;;
11986;SDS011;6053;51.382;6.768;2022-09-03T05:18:56;0.90;;;0.90;;
11986;SDS011;6053;51.382;6.768;2022-09-03T05:21:28;0.90;;;0.90;;
11986;SDS011;6053;51.382;6.768;2022-09-03T05:23:58;0.82;;;0.82;;
11986;SDS011;6053;51.382;6.768;2022-09-03T05:26:28;0.80;;;0.80;;
11986;SDS011;6053;51.382;6.768;2022-09-03T05:28:58;0.70;;;0.70;;
11986;SDS011;6053;51.382;6.768;2022-09-03T05:31:28;0.70;;;0.70;;
11986;SDS011;6053;51.382;6.768;2022-09-03T05:33:58;0.90;;;0.90;;
11986;SDS011;6053;51.382;6.768;2022-09-03T05:36:29;0.82;;;0.82;;
11986;SDS011;6053;51.382;6.768;2022-09-03T05:38:59;0.80;;;0.80;;
11986;SDS011;6053;51.382;6.768;2022-09-03T05:41:28;0.80;;;0.80;;
11986;SDS011;6053;51.382;6.768;2022-09-03T05:43:58;0.87;;;0.87;;
11986;SDS011;6053;51.382;6.768;2022-09-03T05:46:28;0.90;;;0.90;;
11986;SDS011;6053;51.382;6.768;2022-09-03T05:48:59;1.00;;;1.00;;
11986;SDS011;6053;51.382;6.768;2022-09-03T05:51:30;0.90;;;0.90;;
11986;SDS011;6053;51.382;6.768;2022-09-03T05:53:59;0.80;;;0.80;;
11986;SDS011;6053;51.382;6.768;2022-09-03T05:56:29;1.00;;;1.00;;
11986;SDS011;6053;51.382;6.768;2022-09-03T05:59:02;0.93;;;0.93;;
11986;SDS011;6053;51.382;6.768;2022-09-03T06:01:35;0.95;;;0.95;;
11986;SDS011;6053;51.382;6.768;2022-09-03T06:04:05;0.80;;;0.80;;
11986;SDS011;6053;51.382;6.768;2022-09-03T06:06:37;0.90;;;0.90;;
11986;SDS011;6053;51.382;6.768;2022-09-03T06:09:08;0.82;;;0.82;;
11986;SDS011;6053;51.382;6.768;2022-09-03T06:11:39;2.00;;;1.10;;
11986;SDS011;6053;51.382;6.768;2022-09-03T06:14:09;1.15;;;1.10;;
11986;SDS011;6053;51.382;6.768;2022-09-03T06:16:40;1.10;;;1.10;;
11986;SDS011;6053;51.382;6.768;2022-09-03T06:19:10;1.30;;;1.10;;
11986;SDS011;6053;51.382;6.768;2022-09-03T06:21:41;1.00;;;1.00;;
11986;SDS011;6053;51.382;6.768;2022-09-03T06:24:12;1.10;;;1.00;;
11986;SDS011;6053;51.382;6.768;2022-09-03T06:26:42;1.05;;;1.05;;
11986;SDS011;6053;51.382;6.768;2022-09-03T06:29:12;1.00;;;1.00;;
11986;SDS011;6053;51.382;6.768;2022-09-03T06:31:41;0.82;;;0.82;;
11986;SDS011;6053;51.382;6.768;2022-09-03T06:34:10;1.10;;;1.10;;
11986;SDS011;6053;51.382;6.768;2022-09-03T06:36:38;0.82;;;0.82;;
11986;SDS011;6053;51.382;6.768;2022-09-03T06:39:08;1.00;;;1.00;;
11986;SDS011;6053;51.382;6.768;2022-09-03T06:41:36;0.80;;;0.80;;
11986;SDS011;6053;51.382;6.768;2022-09-03T06:44:06;1.75;;;1.15;;
11986;SDS011;6053;51.382;6.768;2022-09-03T06:46:37;0.80;;;0.80;;
11986;SDS011;6053;51.382;6.768;2022-09-03T06:49:08;1.25;;;1.02;;
11986;SDS011;6053;51.382;6.768;2022-09-03T06:51:38;0.90;;;0.90;;
11986;SDS011;6053;51.382;6.768;2022-09-03T06:54:10;0.80;;;0.80;;
11986;SDS011;6053;51.382;6.768;2022-09-03T06:56:40;1.08;;;0.98;;
11986;SDS011;6053;51.382;6.768;2022-09-03T06:59:09;2.00;;;1.00;;
11986;SDS011;6053;51.382;6.768;2022-09-03T07:01:39;0.75;;;0.75;;
11986;SDS011;6053;51.382;6.768;2022-09-03T07:04:12;1.07;;;0.90;;
11986;SDS011;6053;51.382;6.768;2022-09-03T07:06:46;1.70;;;1.10;;
11986;SDS011;6053;51.382;6.768;2022-09-03T07:09:15;1.27;;;1.02;;
11986;SDS011;6053;51.382;6.768;2022-09-03T07:11:44;0.85;;;0.73;;
11986;SDS011;6053;51.382;6.768;2022-09-03T07:14:14;1.00;;;0.90;;
11986;SDS011;6053;51.382;6.768;2022-09-03T07:16:45;1.97;;;0.90;;
11986;SDS011;6053;51.382;6.768;2022-09-03T07:19:14;1.50;;;1.00;;
11986;SDS011;6053;51.382;6.768;2022-09-03T07:21:43;3.00;;;1.10;;
11986;SDS011;6053;51.382;6.768;2022-09-03T07:24:17;1.98;;;1.00;;
11986;SDS011;6053;51.382;6.768;2022-09-03T07:26:47;2.10;;;1.00;;
11986;SDS011;6053;51.382;6.768;2022-09-03T07:29:16;1.10;;;0.88;;
11986;SDS011;6053;51.382;6.768;2022-09-03T07:31:47;0.98;;;0.93;;
11986;SDS011;6053;51.382;6.768;2022-09-03T07:34:18;0.88;;;0.88;;
11986;SDS011;6053;51.382;6.768;2022-09-03T07:36:50;1.00;;;1.00;;
11986;SDS011;6053;51.382;6.768;2022-09-03T07:39:20;0.70;;;0.70;;
11986;SDS011;6053;51.382;6.768;2022-09-03T07:41:49;0.80;;;0.80;;
11986;SDS011;6053;51.382;6.768;2022-09-03T07:44:18;1.10;;;0.60;;
11986;SDS011;6053;51.382;6.768;2022-09-03T07:46:46;0.80;;;0.80;;
11986;SDS011;6053;51.382;6.768;2022-09-03T07:49:16;0.80;;;0.80;;
11986;SDS011;6053;51.382;6.768;2022-09-03T07:51:46;1.60;;;0.70;;
11986;SDS011;6053;51.382;6.768;2022-09-03T07:54:16;0.70;;;0.70;;
11986;SDS011;6053;51.382;6.768;2022-09-03T07:56:46;0.80;;;0.80;;
11986;SDS011;6053;51.382;6.768;2022-09-03T07:59:15;0.90;;;0.73;;
11986;SDS011;6053;51.382;6.768;2022-09-03T08:01:44;0.70;;;0.70;;
11986;SDS011;6053;51.382;6.768;2022-09-03T08:04:12;1.10;;;1.00;;
11986;SDS011;6053;51.382;6.768;2022-09-03T08:06:41;3.38;;;0.77;;
11986;SDS011;6053;51.382;6.768;2022-09-03T08:09:10;0.75;;;0.75;;
11986;SDS011;6053;51.382;6.768;2022-09-03T08:11:40;0.65;;;0.65;;
11986;SDS011;6053;51.382;6.768;2022-09-03T08:14:11;1.53;;;0.70;;
11986;SDS011;6053;51.382;6.768;2022-09-03T08:16:42;0.47;;;0.47;;
11986;SDS011;6053;51.382;6.768;2022-09-03T08:19:12;0.57;;;0.57;;
11986;SDS011;6053;51.382;6.768;2022-09-03T08:21:42;0.75;;;0.75;;
11986;SDS011;6053;51.382;6.768;2022-09-03T08:24:11;0.73;;;0.68;;
11986;SDS011;6053;51.382;6.768;2022-09-03T08:26:42;0.57;;;0.57;;
11986;SDS011;6053;51.382;6.768;2022-09-03T08:29:20;0.80;;;0.80;;
11986;SDS011;6053;51.382;6.768;2022-09-03T08:31:49;0.60;;;0.60;;
11986;SDS011;6053;51.382;6.768;2022-09-03T08:34:17;1.40;;;0.70;;
11986;SDS011;6053;51.382;6.768;2022-09-03T08:36:46;1.10;;;0.70;;
11986;SDS011;6053;51.382;6.768;2022-09-03T08:39:15;0.63;;;0.63;;
11986;SDS011;6053;51.382;6.768;2022-09-03T08:41:47;0.50;;;0.50;;
11986;SDS011;6053;51.382;6.768;2022-09-03T08:44:46;1.40;;;0.50;;
11986;SDS011;6053;51.382;6.768;2022-09-03T08:47:20;1.75;;;0.60;;
11986;SDS011;6053;51.382;6.768;2022-09-03T08:49:53;2.10;;;0.50;;
11986;SDS011;6053;51.382;6.768;2022-09-03T08:52:25;0.60;;;0.60;;
11986;SDS011;6053;51.382;6.768;2022-09-03T08:55:05;0.55;;;0.55;;
11986;SDS011;6053;51.382;6.768;2022-09-03T08:57:47;0.60;;;0.60;;
11986;SDS011;6053;51.382;6.768;2022-09-03T09:00:19;1.27;;;0.70;;
11986;SDS011;6053;51.382;6.768;2022-09-03T09:02:51;0.70;;;0.60;;
11986;SDS011;6053;51.382;6.768;2022-09-03T09:05:37;2.10;;;0.55;;
11986;SDS011;6053;51.382;6.768;2022-09-03T09:08:19;2.20;;;0.70;;
11986;SDS011;6053;51.382;6.768;2022-09-03T09:11:00;0.80;;;0.50;;
11986;SDS011;6053;51.382;6.768;2022-09-03T09:13:38;0.50;;;0.50;;
11986;SDS011;6053;51.382;6.768;2022-09-03T09:16:16;0.60;;;0.57;;
11986;SDS011;6053;51.382;6.768;2022-09-03T09:18:55;0.50;;;0.50;;
11986;SDS011;6053;51.382;6.768;2022-09-03T09:21:39;0.40;;;0.40;;
11986;SDS011;6053;51.382;6.768;2022-09-03T09:24:15;0.40;;;0.40;;
11986;SDS011;6053;51.382;6.768;2022-09-03T09:26:48;1.02;;;0.50;;
11986;SDS011;6053;51.382;6.768;2022-09-03T09:29:22;1.05;;;0.68;;
11986;SDS011;6053;51.382;6.768;2022-09-03T09:31:56;2.57;;;0.63;;
11986;SDS011;6053;51.382;6.768;2022-09-03T09:34:24;1.80;;;0.60;;
11986;SDS011;6053;51.382;6.768;2022-09-03T09:36:53;0.50;;;0.50;;
11986;SDS011;6053;51.382;6.768;2022-09-03T09:39:23;0.40;;;0.40;;
11986;SDS011;6053;51.382;6.768;2022-09-03T09:41:57;1.23;;;0.50;;
11986;SDS011;6053;51.382;6.768;2022-09-03T09:44:30;1.20;;;0.70;;
11986;SDS011;6053;51.382;6.768;2022-09-03T09:47:04;0.50;;;0.50;;
11986;SDS011;6053;51.382;6.768;2022-09-03T09:49:37;0.40;;;0.40;;
11986;SDS011;6053;51.382;6.768;2022-09-03T09:52:19;1.20;;;0.60;;
11986;SDS011;6053;51.382;6.768;2022-09-03T09:54:51;0.60;;;0.50;;
11986;SDS011;6053;51.382;6.768;2022-09-03T09:57:32;1.15;;;0.57;;
11986;SDS011;6053;51.382;6.768;2022-09-03T10:00:04;1.00;;;0.60;;
11986;SDS011;6053;51.382;6.768;2022-09-03T10:02:37;0.50;;;0.50;;
11986;SDS011;6053;51.382;6.768;2022-09-03T10:05:11;0.65;;;0.65;;
11986;SDS011;6053;51.382;6.768;2022-09-03T10:07:53;0.30;;;0.30;;
11986;SDS011;6053;51.382;6.768;2022-09-03T10:10:23;0.80;;;0.50;;
11986;SDS011;6053;51.382;6.768;2022-09-03T10:12:55;0.50;;;0.50;;
11986;SDS011;6053;51.382;6.768;2022-09-03T10:15:32;1.65;;;0.60;;
11986;SDS011;6053;51.382;6.768;2022-09-03T10:18:10;0.90;;;0.50;;
11986;SDS011;6053;51.382;6.768;2022-09-03T10:20:53;0.33;;;0.33;;
11986;SDS011;6053;51.382;6.768;2022-09-03T10:23:31;0.50;;;0.50;;
11986;SDS011;6053;51.382;6.768;2022-09-03T10:26:09;0.73;;;0.50;;
11986;SDS011;6053;51.382;6.768;2022-09-03T10:28:40;0.40;;;0.40;;
11986;SDS011;6053;51.382;6.768;2022-09-03T10:31:15;1.65;;;0.40;;
11986;SDS011;6053;51.382;6.768;2022-09-03T10:34:00;1.55;;;0.50;;
11986;SDS011;6053;51.382;6.768;2022-09-03T10:36:38;0.50;;;0.47;;
11986;SDS011;6053;51.382;6.768;2022-09-03T10:39:18;0.47;;;0.40;;
11986;SDS011;6053;51.382;6.768;2022-09-03T10:41:55;0.70;;;0.60;;
11986;SDS011;6053;51.382;6.768;2022-09-03T10:44:39;0.50;;;0.50;;
11986;SDS011;6053;51.382;6.768;2022-09-03T10:47:39;1.45;;;0.50;;
11986;SDS011;6053;51.382;6.768;2022-09-03T10:50:51;0.55;;;0.55;;
11986;SDS011;6053;51.382;6.768;2022-09-03T10:53:27;0.90;;;0.70;;
11986;SDS011;6053;51.382;6.768;2022-09-03T10:56:16;0.55;;;0.55;;
11986;SDS011;6053;51.382;6.768;2022-09-03T10:58:59;0.70;;;0.70;;
11986;SDS011;6053;51.382;6.768;2022-09-03T11:01:44;0.65;;;0.65;;
11986;SDS011;6053;51.382;6.768;2022-09-03T11:04:26;0.52;;;0.52;;
11986;SDS011;6053;51.382;6.768;2022-09-03T11:07:06;1.05;;;0.60;;
11986;SDS011;6053;51.382;6.768;2022-09-03T11:09:39;0.73;;;0.63;;
11986;SDS011;6053;51.382;6.768;2022-09-03T11:12:15;0.60;;;0.60;;
11986;SDS011;6053;51.382;6.768;2022-09-03T11:14:51;0.75;;;0.73;;
11986;SDS011;6053;51.382;6.768;2022-09-03T11:17:27;0.77;;;0.50;;
11986;SDS011;6053;51.382;6.768;2022-09-03T11:20:07;1.00;;;0.60;;
11986;SDS011;6053;51.382;6.768;2022-09-03T11:22:44;0.60;;;0.60;;
11986;SDS011;6053;51.382;6.768;2022-09-03T11:25:16;0.75;;;0.65;;
11986;SDS011;6053;51.382;6.768;2022-09-03T11:27:52;0.68;;;0.68;;
11986;SDS011;6053;51.382;6.768;2022-09-03T11:30:35;0.88;;;0.60;;
11986;SDS011;6053;51.382;6.768;2022-09-03T11:33:16;1.30;;;0.70;;
11986;SDS011;6053;51.382;6.768;2022-09-03T11:35:53;0.82;;;0.82;;
11986;SDS011;6053;51.382;6.768;2022-09-03T11:38:28;2.30;;;0.70;;
11986;SDS011;6053;51.382;6.768;2022-09-03T11:40:58;2.40;;;0.77;;
11986;SDS011;6053;51.382;6.768;2022-09-03T11:43:31;0.60;;;0.60;;
11986;SDS011;6053;51.382;6.768;2022-09-03T11:46:02;1.23;;;0.60;;
11986;SDS011;6053;51.382;6.768;2022-09-03T11:48:39;0.65;;;0.65;;
11986;SDS011;6053;51.382;6.768;2022-09-03T11:51:17;0.75;;;0.60;;
11986;SDS011;6053;51.382;6.768;2022-09-03T11:54:00;1.52;;;0.73;;
11986;SDS011;6053;51.382;6.768;2022-09-03T11:56:32;4.70;;;0.90;;
11986;SDS011;6053;51.382;6.768;2022-09-03T11:59:03;0.63;;;0.63;;
11986;SDS011;6053;51.382;6.768;2022-09-03T12:01:46;0.50;;;0.50;;
11986;SDS011;6053;51.382;6.768;2022-09-03T12:04:19;1.10;;;1.00;;
11986;SDS011;6053;51.382;6.768;2022-09-03T12:06:56;0.70;;;0.70;;
11986;SDS011;6053;51.382;6.768;2022-09-03T12:12:57;2.17;;;0.60;;
11986;SDS011;6053;51.382;6.768;2022-09-03T12:15:45;1.50;;;0.50;;
11986;SDS011;6053;51.382;6.768;2022-09-03T12:18:34;0.70;;;0.70;;
11986;SDS011;6053;51.382;6.768;2022-09-03T12:21:04;0.80;;;0.50;;
11986;SDS011;6053;51.382;6.768;2022-09-03T12:23:38;0.63;;;0.50;;
11986;SDS011;6053;51.382;6.768;2022-09-03T12:26:12;1.20;;;0.53;;
11986;SDS011;6053;51.382;6.768;2022-09-03T12:28:43;0.83;;;0.60;;
11986;SDS011;6053;51.382;6.768;2022-09-03T12:31:18;0.50;;;0.50;;
11986;SDS011;6053;51.382;6.768;2022-09-03T12:33:51;1.05;;;0.60;;
11986;SDS011;6053;51.382;6.768;2022-09-03T12:36:24;0.70;;;0.70;;
11986;SDS011;6053;51.382;6.768;2022-09-03T12:39:06;1.48;;;0.60;;
11986;SDS011;6053;51.382;6.768;2022-09-03T12:41:45;1.17;;;0.75;;
11986;SDS011;6053;51.382;6.768;2022-09-03T12:44:24;0.50;;;0.50;;
11986;SDS011;6053;51.382;6.768;2022-09-03T12:47:02;0.57;;;0.57;;
11986;SDS011;6053;51.382;6.768;2022-09-03T12:49:55;0.50;;;0.47;;
11986;SDS011;6053;51.382;6.768;2022-09-03T12:52:25;0.50;;;0.50;;
11986;SDS011;6053;51.382;6.768;2022-09-03T12:54:58;0.50;;;0.50;;
11986;SDS011;6053;51.382;6.768;2022-09-03T12:57:33;0.57;;;0.57;;
11986;SDS011;6053;51.382;6.768;2022-09-03T13:00:06;0.70;;;0.55;;
11986;SDS011;6053;51.382;6.768;2022-09-03T13:02:38;0.60;;;0.60;;
11986;SDS011;6053;51.382;6.768;2022-09-03T13:05:15;0.60;;;0.50;;
11986;SDS011;6053;51.382;6.768;2022-09-03T13:07:48;1.33;;;0.68;;
11986;SDS011;6053;51.382;6.768;2022-09-03T13:10:22;0.65;;;0.65;;
11986;SDS011;6053;51.382;6.768;2022-09-03T13:12:58;1.80;;;0.60;;
11986;SDS011;6053;51.382;6.768;2022-09-03T13:15:29;0.52;;;0.35;;
11986;SDS011;6053;51.382;6.768;2022-09-03T13:18:06;0.40;;;0.40;;
11986;SDS011;6053;51.382;6.768;2022-09-03T13:20:52;0.70;;;0.70;;
11986;SDS011;6053;51.382;6.768;2022-09-03T13:23:52;0.63;;;0.60;;
11986;SDS011;6053;51.382;6.768;2022-09-03T13:26:47;0.40;;;0.40;;
11986;SDS011;6053;51.382;6.768;2022-09-03T13:29:31;0.80;;;0.80;;
11986;SDS011;6053;51.382;6.768;2022-09-03T13:32:16;0.68;;;0.68;;
11986;SDS011;6053;51.382;6.768;2022-09-03T13:34:56;1.58;;;0.70;;
11986;SDS011;6053;51.382;6.768;2022-09-03T13:37:32;0.60;;;0.60;;
11986;SDS011;6053;51.382;6.768;2022-09-03T13:40:09;1.20;;;0.63;;
11986;SDS011;6053;51.382;6.768;2022-09-03T13:42:45;0.63;;;0.63;;
11986;SDS011;6053;51.382;6.768;2022-09-03T13:45:25;1.40;;;0.60;;
11986;SDS011;6053;51.382;6.768;2022-09-03T13:48:00;1.10;;;0.60;;
11986;SDS011;6053;51.382;6.768;2022-09-03T13:50:57;0.80;;;0.80;;
11986;SDS011;6053;51.382;6.768;2022-09-03T13:53:35;0.50;;;0.50;;
11986;SDS011;6053;51.382;6.768;2022-09-03T13:56:17;0.90;;;0.60;;
11986;SDS011;6053;51.382;6.768;2022-09-03T13:58:55;0.70;;;0.70;;
11986;SDS011;6053;51.382;6.768;2022-09-03T14:01:37;0.70;;;0.52;;
11986;SDS011;6053;51.382;6.768;2022-09-03T14:04:27;0.70;;;0.50;;
11986;SDS011;6053;51.382;6.768;2022-09-03T14:07:07;0.80;;;0.50;;
11986;SDS011;6053;51.382;6.768;2022-09-03T14:09:47;1.30;;;0.60;;
11986;SDS011;6053;51.382;6.768;2022-09-03T14:12:28;0.73;;;0.70;;
11986;SDS011;6053;51.382;6.768;2022-09-03T14:15:10;2.55;;;0.63;;
11986;SDS011;6053;51.382;6.768;2022-09-03T14:17:50;0.60;;;0.60;;
11986;SDS011;6053;51.382;6.768;2022-09-03T14:20:29;0.50;;;0.50;;
11986;SDS011;6053;51.382;6.768;2022-09-03T14:23:06;0.70;;;0.70;;
11986;SDS011;6053;51.382;6.768;2022-09-03T14:25:52;0.57;;;0.57;;
11986;SDS011;6053;51.382;6.768;2022-09-03T14:28:26;0.95;;;0.70;;
11986;SDS011;6053;51.382;6.768;2022-09-03T14:31:02;0.68;;;0.68;;
11986;SDS011;6053;51.382;6.768;2022-09-03T14:33:43;0.68;;;0.68;;
11986;SDS011;6053;51.382;6.768;2022-09-03T14:36:22;0.70;;;0.70;;
11986;SDS011;6053;51.382;6.768;2022-09-03T14:39:14;1.40;;;0.70;;
11986;SDS011;6053;51.382;6.768;2022-09-03T14:42:12;1.55;;;0.70;;
11986;SDS011;6053;51.382;6.768;2022-09-03T14:45:14;1.63;;;0.85;;
11986;SDS011;6053;51.382;6.768;2022-09-03T14:48:10;0.95;;;0.95;;
11986;SDS011;6053;51.382;6.768;2022-09-03T14:51:19;1.30;;;0.80;;
11986;SDS011;6053;51.382;6.768;2022-09-03T14:54:05;0.30;;;0.30;;
11986;SDS011;6053;51.382;6.768;2022-09-03T14:57:07;0.93;;;0.57;;
11986;SDS011;6053;51.382;6.768;2022-09-03T15:00:01;1.13;;;1.02;;
11986;SDS011;6053;51.382;6.768;2022-09-03T15:06:15;0.50;;;0.50;;
11986;SDS011;6053;51.382;6.768;2022-09-03T15:09:14;1.33;;;0.60;;
11986;SDS011;6053;51.382;6.768;2022-09-03T15:11:55;0.57;;;0.50;;
11986;SDS011;6053;51.382;6.768;2022-09-03T15:14:29;0.70;;;0.70;;
11986;SDS011;6053;51.382;6.768;2022-09-03T15:17:18;2.20;;;0.70;;
11986;SDS011;6053;51.382;6.768;2022-09-03T15:23:08;1.20;;;0.70;;
11986;SDS011;6053;51.382;6.768;2022-09-03T15:26:15;0.63;;;0.63;;
11986;SDS011;6053;51.382;6.768;2022-09-03T15:29:17;0.60;;;0.60;;
11986;SDS011;6053;51.382;6.768;2022-09-03T15:31:58;0.98;;;0.75;;
11986;SDS011;6053;51.382;6.768;2022-09-03T15:34:48;0.80;;;0.80;;
11986;SDS011;6053;51.382;6.768;2022-09-03T15:37:34;2.00;;;0.80;;
11986;SDS011;6053;51.382;6.768;2022-09-03T15:40:18;1.23;;;0.70;;
11986;SDS011;6053;51.382;6.768;2022-09-03T15:42:58;1.20;;;0.70;;
11986;SDS011;6053;51.382;6.768;2022-09-03T15:45:37;1.30;;;0.63;;
11986;SDS011;6053;51.382;6.768;2022-09-03T15:48:19;1.37;;;0.73;;
11986;SDS011;6053;51.382;6.768;2022-09-03T15:50:57;0.60;;;0.60;;
11986;SDS011;6053;51.382;6.768;2022-09-03T15:53:39;0.60;;;0.60;;
11986;SDS011;6053;51.382;6.768;2022-09-03T15:56:19;0.50;;;0.50;;
11986;SDS011;6053;51.382;6.768;2022-09-03T15:58:59;0.85;;;0.63;;
11986;SDS011;6053;51.382;6.768;2022-09-03T16:01:35;1.00;;;0.70;;
11986;SDS011;6053;51.382;6.768;2022-09-03T16:04:16;1.10;;;0.60;;